sensor_id;sensor_type;location;lat;lon;timestamp;temperature;humidity
38488;DHT22;57384;51.986;4.458;2024-03-23T00:56:00;9.40;75.50
38488;DHT22;57384;51.986;4.458;2024-03-23T00:58:27;9.30;75.50
38488;DHT22;57384;51.986;4.458;2024-03-23T01:00:54;9.30;75.50
38488;DHT22;57384;51.986;4.458;2024-03-23T01:03:20;9.30;75.50
38488;DHT22;57384;51.986;4.458;2024-03-23T01:05:48;9.30;75.50
38488;DHT22;57384;51.986;4.458;2024-03-23T01:08:15;9.30;75.50
38488;DHT22;57384;51.986;4.458;2024-03-23T01:10:42;9.30;75.50
38488;DHT22;57384;51.986;4.458;2024-03-23T01:13:11;9.30;75.50
38488;DHT22;57384;51.986;4.458;2024-03-23T01:15:38;9.30;75.60
38488;DHT22;57384;51.986;4.458;2024-03-23T01:18:10;9.20;75.50
38488;DHT22;57384;51.986;4.458;2024-03-23T01:20:48;9.20;75.60
38488;DHT22;57384;51.986;4.458;2024-03-23T01:23:17;9.20;75.60
38488;DHT22;57384;51.986;4.458;2024-03-23T01:25:52;9.10;75.50
38488;DHT22;57384;51.986;4.458;2024-03-23T01:28:19;9.10;75.60
38488;DHT22;57384;51.986;4.458;2024-03-23T01:30:46;9.10;75.60
38488;DHT22;57384;51.986;4.458;2024-03-23T01:33:17;9.10;75.60
38488;DHT22;57384;51.986;4.458;2024-03-23T01:35:50;9.10;75.60
38488;DHT22;57384;51.986;4.458;2024-03-23T01:38:24;9.00;75.60
38488;DHT22;57384;51.986;4.458;2024-03-23T01:40:59;9.00;75.60
38488;DHT22;57384;51.986;4.458;2024-03-23T01:43:41;9.00;75.60
38488;DHT22;57384;51.986;4.458;2024-03-23T01:46:18;8.90;75.60
38488;DHT22;57384;51.986;4.458;2024-03-23T01:48:53;8.90;75.60
38488;DHT22;57384;51.986;4.458;2024-03-23T01:51:23;8.90;75.60
38488;DHT22;57384;51.986;4.458;2024-03-23T01:53:58;8.90;75.60
38488;DHT22;57384;51.986;4.458;2024-03-23T01:56:32;8.80;75.60
38488;DHT22;57384;51.986;4.458;2024-03-23T01:59:04;8.80;75.60
38488;DHT22;57384;51.986;4.458;2024-03-23T02:01:31;8.80;75.60
38488;DHT22;57384;51.986;4.458;2024-03-23T02:04:07;8.70;75.60
38488;DHT22;57384;51.986;4.458;2024-03-23T02:06:34;8.70;75.60
38488;DHT22;57384;51.986;4.458;2024-03-23T02:09:00;8.70;75.60
38488;DHT22;57384;51.986;4.458;2024-03-23T02:11:34;8.60;75.50
38488;DHT22;57384;51.986;4.458;2024-03-23T02:14:10;8.60;75.50
38488;DHT22;57384;51.986;4.458;2024-03-23T02:16:37;8.60;75.50
38488;DHT22;57384;51.986;4.458;2024-03-23T02:19:05;8.60;75.50
38488;DHT22;57384;51.986;4.458;2024-03-23T02:21:31;8.50;75.50
38488;DHT22;57384;51.986;4.458;2024-03-23T02:23:59;8.50;75.50
38488;DHT22;57384;51.986;4.458;2024-03-23T02:26:26;8.50;75.50
38488;DHT22;57384;51.986;4.458;2024-03-23T02:28:54;8.40;75.50
38488;DHT22;57384;51.986;4.458;2024-03-23T02:31:21;8.40;75.50
38488;DHT22;57384;51.986;4.458;2024-03-23T02:33:50;8.40;75.50
38488;DHT22;57384;51.986;4.458;2024-03-23T02:36:17;8.40;75.50
38488;DHT22;57384;51.986;4.458;2024-03-23T02:38:43;8.30;75.40
38488;DHT22;57384;51.986;4.458;2024-03-23T02:41:10;8.30;75.50
38488;DHT22;57384;51.986;4.458;2024-03-23T02:43:36;8.30;75.40
38488;DHT22;57384;51.986;4.458;2024-03-23T02:46:05;8.30;75.40
38488;DHT22;57384;51.986;4.458;2024-03-23T02:48:35;8.20;75.40
38488;DHT22;57384;51.986;4.458;2024-03-23T02:51:01;8.20;75.60
38488;DHT22;57384;51.986;4.458;2024-03-23T02:53:30;8.20;75.50
38488;DHT22;57384;51.986;4.458;2024-03-23T02:55:58;8.20;75.40
38488;DHT22;57384;51.986;4.458;2024-03-23T02:58:25;8.10;75.40
38488;DHT22;57384;51.986;4.458;2024-03-23T03:00:54;8.10;75.40
38488;DHT22;57384;51.986;4.458;2024-03-23T03:03:21;8.10;75.40
38488;DHT22;57384;51.986;4.458;2024-03-23T03:05:47;8.10;75.40
38488;DHT22;57384;51.986;4.458;2024-03-23T03:08:15;8.00;75.40
38488;DHT22;57384;51.986;4.458;2024-03-23T03:10:43;8.00;75.40
38488;DHT22;57384;51.986;4.458;2024-03-23T03:13:11;8.00;75.40
38488;DHT22;57384;51.986;4.458;2024-03-23T03:15:45;7.90;75.30
38488;DHT22;57384;51.986;4.458;2024-03-23T03:18:13;7.90;75.40
38488;DHT22;57384;51.986;4.458;2024-03-23T03:20:40;7.90;75.40
38488;DHT22;57384;51.986;4.458;2024-03-23T03:23:10;7.80;75.30
38488;DHT22;57384;51.986;4.458;2024-03-23T03:25:48;7.80;75.30
38488;DHT22;57384;51.986;4.458;2024-03-23T03:28:15;7.80;75.30
38488;DHT22;57384;51.986;4.458;2024-03-23T03:30:47;7.80;75.40
38488;DHT22;57384;51.986;4.458;2024-03-23T03:33:20;7.70;75.30
38488;DHT22;57384;51.986;4.458;2024-03-23T03:35:53;7.70;75.30
38488;DHT22;57384;51.986;4.458;2024-03-23T03:38:21;7.60;75.20
38488;DHT22;57384;51.986;4.458;2024-03-23T03:40:50;7.70;75.30
38488;DHT22;57384;51.986;4.458;2024-03-23T03:43:23;7.70;75.40
38488;DHT22;57384;51.986;4.458;2024-03-23T03:45:53;7.60;75.30
38488;DHT22;57384;51.986;4.458;2024-03-23T03:48:28;7.60;75.30
38488;DHT22;57384;51.986;4.458;2024-03-23T03:51:11;7.50;75.20
38488;DHT22;57384;51.986;4.458;2024-03-23T03:53:38;7.60;75.30
38488;DHT22;57384;51.986;4.458;2024-03-23T03:56:12;7.60;75.30
38488;DHT22;57384;51.986;4.458;2024-03-23T03:58:45;7.50;75.30
38488;DHT22;57384;51.986;4.458;2024-03-23T04:01:18;7.50;75.20
38488;DHT22;57384;51.986;4.458;2024-03-23T04:04:04;7.50;75.20
38488;DHT22;57384;51.986;4.458;2024-03-23T04:06:30;7.50;75.20
38488;DHT22;57384;51.986;4.458;2024-03-23T04:08:57;7.40;75.20
38488;DHT22;57384;51.986;4.458;2024-03-23T04:11:25;7.40;75.20
38488;DHT22;57384;51.986;4.458;2024-03-23T04:13:52;7.40;75.20
38488;DHT22;57384;51.986;4.458;2024-03-23T04:16:29;7.40;75.20
38488;DHT22;57384;51.986;4.458;2024-03-23T04:18:56;7.40;75.20
38488;DHT22;57384;51.986;4.458;2024-03-23T04:21:23;7.20;75.10
38488;DHT22;57384;51.986;4.458;2024-03-23T04:23:50;7.30;75.10
38488;DHT22;57384;51.986;4.458;2024-03-23T04:26:23;7.30;75.20
38488;DHT22;57384;51.986;4.458;2024-03-23T04:28:51;7.30;75.20
38488;DHT22;57384;51.986;4.458;2024-03-23T04:31:23;7.30;75.20
38488;DHT22;57384;51.986;4.458;2024-03-23T04:33:50;7.30;75.20
38488;DHT22;57384;51.986;4.458;2024-03-23T04:36:17;7.20;75.20
38488;DHT22;57384;51.986;4.458;2024-03-23T04:38:45;7.20;75.10
38488;DHT22;57384;51.986;4.458;2024-03-23T04:41:13;7.20;75.20
38488;DHT22;57384;51.986;4.458;2024-03-23T04:43:41;7.20;75.10
38488;DHT22;57384;51.986;4.458;2024-03-23T04:46:07;7.20;75.10
38488;DHT22;57384;51.986;4.458;2024-03-23T04:48:34;7.20;75.10
38488;DHT22;57384;51.986;4.458;2024-03-23T04:51:01;7.10;75.10
38488;DHT22;57384;51.986;4.458;2024-03-23T04:53:29;7.10;75.10
38488;DHT22;57384;51.986;4.458;2024-03-23T04:55:56;7.10;75.10
38488;DHT22;57384;51.986;4.458;2024-03-23T04:58:23;7.10;75.10
38488;DHT22;57384;51.986;4.458;2024-03-23T05:00:53;7.00;75.00
38488;DHT22;57384;51.986;4.458;2024-03-23T05:03:20;7.10;75.10
38488;DHT22;57384;51.986;4.458;2024-03-23T05:05:47;7.10;75.10
38488;DHT22;57384;51.986;4.458;2024-03-23T05:08:15;7.00;75.00
38488;DHT22;57384;51.986;4.458;2024-03-23T05:10:42;7.00;75.00
38488;DHT22;57384;51.986;4.458;2024-03-23T05:13:10;7.00;75.00
38488;DHT22;57384;51.986;4.458;2024-03-23T05:15:37;7.00;75.00
38488;DHT22;57384;51.986;4.458;2024-03-23T05:18:04;7.00;75.00
38488;DHT22;57384;51.986;4.458;2024-03-23T05:20:33;7.00;75.00
38488;DHT22;57384;51.986;4.458;2024-03-23T05:22:59;7.00;75.00
38488;DHT22;57384;51.986;4.458;2024-03-23T05:25:28;7.00;75.20
38488;DHT22;57384;51.986;4.458;2024-03-23T05:27:57;7.00;75.00
38488;DHT22;57384;51.986;4.458;2024-03-23T05:30:25;7.00;75.00
38488;DHT22;57384;51.986;4.458;2024-03-23T05:32:58;7.00;75.00
38488;DHT22;57384;51.986;4.458;2024-03-23T05:35:26;7.00;75.00
38488;DHT22;57384;51.986;4.458;2024-03-23T05:37:54;7.00;75.00
38488;DHT22;57384;51.986;4.458;2024-03-23T05:40:21;7.00;75.00
38488;DHT22;57384;51.986;4.458;2024-03-23T05:42:48;7.00;75.00
38488;DHT22;57384;51.986;4.458;2024-03-23T05:45:16;7.00;75.00
38488;DHT22;57384;51.986;4.458;2024-03-23T05:47:44;7.00;75.00
38488;DHT22;57384;51.986;4.458;2024-03-23T05:50:12;7.10;75.00
38488;DHT22;57384;51.986;4.458;2024-03-23T05:52:39;7.00;75.00
38488;DHT22;57384;51.986;4.458;2024-03-23T05:55:06;7.10;75.10
38488;DHT22;57384;51.986;4.458;2024-03-23T05:57:32;7.10;75.30
38488;DHT22;57384;51.986;4.458;2024-03-23T06:00:01;7.10;75.20
38488;DHT22;57384;51.986;4.458;2024-03-23T06:02:35;7.10;75.30
38488;DHT22;57384;51.986;4.458;2024-03-23T06:05:03;7.10;75.30
38488;DHT22;57384;51.986;4.458;2024-03-23T06:07:32;7.10;75.30
38488;DHT22;57384;51.986;4.458;2024-03-23T06:09:59;7.10;75.30
38488;DHT22;57384;51.986;4.458;2024-03-23T06:12:27;7.10;75.30
38488;DHT22;57384;51.986;4.458;2024-03-23T06:14:54;7.10;75.30
38488;DHT22;57384;51.986;4.458;2024-03-23T06:17:20;7.10;75.30
38488;DHT22;57384;51.986;4.458;2024-03-23T06:19:57;7.20;75.40
38488;DHT22;57384;51.986;4.458;2024-03-23T06:22:23;7.20;75.30
38488;DHT22;57384;51.986;4.458;2024-03-23T06:24:52;7.20;75.30
38488;DHT22;57384;51.986;4.458;2024-03-23T06:27:19;7.20;75.30
38488;DHT22;57384;51.986;4.458;2024-03-23T06:29:46;7.20;75.30
38488;DHT22;57384;51.986;4.458;2024-03-23T06:32:12;7.20;75.30
38488;DHT22;57384;51.986;4.458;2024-03-23T06:34:42;7.20;75.30
38488;DHT22;57384;51.986;4.458;2024-03-23T06:37:08;7.20;75.30
38488;DHT22;57384;51.986;4.458;2024-03-23T06:39:38;7.20;75.30
38488;DHT22;57384;51.986;4.458;2024-03-23T06:42:05;7.30;75.40
38488;DHT22;57384;51.986;4.458;2024-03-23T06:44:38;7.20;75.30
38488;DHT22;57384;51.986;4.458;2024-03-23T06:47:05;7.30;75.30
38488;DHT22;57384;51.986;4.458;2024-03-23T06:49:32;7.30;75.30
38488;DHT22;57384;51.986;4.458;2024-03-23T06:51:58;7.30;75.40
38488;DHT22;57384;51.986;4.458;2024-03-23T06:54:26;7.30;75.30
38488;DHT22;57384;51.986;4.458;2024-03-23T06:56:53;7.40;75.40
38488;DHT22;57384;51.986;4.458;2024-03-23T06:59:38;7.40;75.40
38488;DHT22;57384;51.986;4.458;2024-03-23T07:02:05;7.40;75.40
38488;DHT22;57384;51.986;4.458;2024-03-23T07:04:34;7.40;75.40
38488;DHT22;57384;51.986;4.458;2024-03-23T07:07:03;7.50;75.50
38488;DHT22;57384;51.986;4.458;2024-03-23T07:09:35;7.50;75.50
38488;DHT22;57384;51.986;4.458;2024-03-23T07:12:02;7.50;75.50
38488;DHT22;57384;51.986;4.458;2024-03-23T07:14:35;7.60;75.60
38488;DHT22;57384;51.986;4.458;2024-03-23T07:17:03;7.60;75.60
38488;DHT22;57384;51.986;4.458;2024-03-23T07:19:29;7.60;75.60
38488;DHT22;57384;51.986;4.458;2024-03-23T07:21:57;7.70;75.60
38488;DHT22;57384;51.986;4.458;2024-03-23T07:24:30;7.60;75.60
38488;DHT22;57384;51.986;4.458;2024-03-23T07:26:59;7.70;75.80
38488;DHT22;57384;51.986;4.458;2024-03-23T07:29:26;7.70;75.80
38488;DHT22;57384;51.986;4.458;2024-03-23T07:31:54;7.80;75.80
38488;DHT22;57384;51.986;4.458;2024-03-23T07:34:20;7.80;75.80
38488;DHT22;57384;51.986;4.458;2024-03-23T07:36:49;7.90;75.80
38488;DHT22;57384;51.986;4.458;2024-03-23T07:39:17;7.90;75.80
38488;DHT22;57384;51.986;4.458;2024-03-23T07:41:51;7.90;75.80
38488;DHT22;57384;51.986;4.458;2024-03-23T07:44:19;8.00;75.80
38488;DHT22;57384;51.986;4.458;2024-03-23T07:46:46;8.00;75.80
38488;DHT22;57384;51.986;4.458;2024-03-23T07:49:15;8.00;75.70
38488;DHT22;57384;51.986;4.458;2024-03-23T07:51:41;8.10;75.70
38488;DHT22;57384;51.986;4.458;2024-03-23T07:54:17;8.20;75.70
38488;DHT22;57384;51.986;4.458;2024-03-23T07:56:44;8.20;75.60
38488;DHT22;57384;51.986;4.458;2024-03-23T07:59:17;8.30;75.60
38488;DHT22;57384;51.986;4.458;2024-03-23T08:01:47;8.40;75.60
38488;DHT22;57384;51.986;4.458;2024-03-23T08:04:32;8.40;75.60
38488;DHT22;57384;51.986;4.458;2024-03-23T08:07:13;8.40;75.50
38488;DHT22;57384;51.986;4.458;2024-03-23T08:09:41;8.50;75.50
38488;DHT22;57384;51.986;4.458;2024-03-23T08:12:18;8.50;75.80
38488;DHT22;57384;51.986;4.458;2024-03-23T08:14:57;8.60;75.40
38488;DHT22;57384;51.986;4.458;2024-03-23T08:17:41;8.70;75.40
38488;DHT22;57384;51.986;4.458;2024-03-23T08:20:10;8.80;75.40
38488;DHT22;57384;51.986;4.458;2024-03-23T08:22:53;8.90;75.30
38488;DHT22;57384;51.986;4.458;2024-03-23T08:25:32;9.00;75.30
38488;DHT22;57384;51.986;4.458;2024-03-23T08:27:59;9.10;75.20
38488;DHT22;57384;51.986;4.458;2024-03-23T08:30:43;9.10;75.10
38488;DHT22;57384;51.986;4.458;2024-03-23T08:33:10;9.30;75.20
38488;DHT22;57384;51.986;4.458;2024-03-23T08:35:39;9.40;75.20
38488;DHT22;57384;51.986;4.458;2024-03-23T08:38:20;9.50;75.20
38488;DHT22;57384;51.986;4.458;2024-03-23T08:40:56;9.60;75.10
38488;DHT22;57384;51.986;4.458;2024-03-23T08:43:25;9.70;75.10
38488;DHT22;57384;51.986;4.458;2024-03-23T08:45:51;9.80;75.10
38488;DHT22;57384;51.986;4.458;2024-03-23T08:48:19;9.90;75.10
38488;DHT22;57384;51.986;4.458;2024-03-23T08:51:08;9.90;75.00
38488;DHT22;57384;51.986;4.458;2024-03-23T08:53:35;10.10;75.10
38488;DHT22;57384;51.986;4.458;2024-03-23T08:56:02;10.10;75.00
38488;DHT22;57384;51.986;4.458;2024-03-23T08:58:41;10.20;75.00
38488;DHT22;57384;51.986;4.458;2024-03-23T09:01:09;10.20;75.00
38488;DHT22;57384;51.986;4.458;2024-03-23T09:03:37;10.30;75.10
38488;DHT22;57384;51.986;4.458;2024-03-23T09:06:08;10.30;75.20
38488;DHT22;57384;51.986;4.458;2024-03-23T09:08:35;10.30;75.20
38488;DHT22;57384;51.986;4.458;2024-03-23T09:11:10;10.40;75.30
38488;DHT22;57384;51.986;4.458;2024-03-23T09:13:44;10.40;75.30
38488;DHT22;57384;51.986;4.458;2024-03-23T09:16:12;10.40;75.30
38488;DHT22;57384;51.986;4.458;2024-03-23T09:18:39;10.50;75.30
38488;DHT22;57384;51.986;4.458;2024-03-23T09:21:12;10.50;75.30
38488;DHT22;57384;51.986;4.458;2024-03-23T09:23:43;10.50;75.30
38488;DHT22;57384;51.986;4.458;2024-03-23T09:26:15;10.60;75.30
38488;DHT22;57384;51.986;4.458;2024-03-23T09:28:42;10.60;75.30
38488;DHT22;57384;51.986;4.458;2024-03-23T09:31:08;10.70;75.20
38488;DHT22;57384;51.986;4.458;2024-03-23T09:33:50;10.70;75.20
38488;DHT22;57384;51.986;4.458;2024-03-23T09:36:23;10.80;75.10
38488;DHT22;57384;51.986;4.458;2024-03-23T09:38:51;10.80;75.00
38488;DHT22;57384;51.986;4.458;2024-03-23T09:41:33;10.90;75.00
38488;DHT22;57384;51.986;4.458;2024-03-23T09:44:08;10.90;74.90
38488;DHT22;57384;51.986;4.458;2024-03-23T09:46:36;11.00;74.90
38488;DHT22;57384;51.986;4.458;2024-03-23T09:49:14;11.10;74.90
38488;DHT22;57384;51.986;4.458;2024-03-23T09:51:53;11.10;74.80
38488;DHT22;57384;51.986;4.458;2024-03-23T09:54:25;11.20;74.90
38488;DHT22;57384;51.986;4.458;2024-03-23T09:57:05;11.20;74.80
38488;DHT22;57384;51.986;4.458;2024-03-23T09:59:39;11.30;74.80
38488;DHT22;57384;51.986;4.458;2024-03-23T10:02:17;11.30;74.80
38488;DHT22;57384;51.986;4.458;2024-03-23T10:04:52;11.30;74.70
38488;DHT22;57384;51.986;4.458;2024-03-23T10:07:27;11.40;74.70
38488;DHT22;57384;51.986;4.458;2024-03-23T10:10:10;11.40;74.70
38488;DHT22;57384;51.986;4.458;2024-03-23T10:12:44;11.40;74.60
38488;DHT22;57384;51.986;4.458;2024-03-23T10:17:53;11.50;74.50
38488;DHT22;57384;51.986;4.458;2024-03-23T10:20:26;11.60;74.40
38488;DHT22;57384;51.986;4.458;2024-03-23T10:23:20;11.70;74.40
38488;DHT22;57384;51.986;4.458;2024-03-23T10:25:51;11.80;74.40
38488;DHT22;57384;51.986;4.458;2024-03-23T10:28:24;11.80;74.30
38488;DHT22;57384;51.986;4.458;2024-03-23T10:30:57;11.90;74.30
38488;DHT22;57384;51.986;4.458;2024-03-23T10:33:26;11.90;74.20
38488;DHT22;57384;51.986;4.458;2024-03-23T10:35:55;12.00;74.20
38488;DHT22;57384;51.986;4.458;2024-03-23T10:38:23;12.00;74.20
38488;DHT22;57384;51.986;4.458;2024-03-23T10:40:49;12.10;74.10
38488;DHT22;57384;51.986;4.458;2024-03-23T10:43:16;12.10;74.10
38488;DHT22;57384;51.986;4.458;2024-03-23T10:45:44;12.10;73.90
38488;DHT22;57384;51.986;4.458;2024-03-23T10:48:11;12.20;73.70
38488;DHT22;57384;51.986;4.458;2024-03-23T10:50:37;12.20;73.60
38488;DHT22;57384;51.986;4.458;2024-03-23T10:53:04;12.30;73.60
38488;DHT22;57384;51.986;4.458;2024-03-23T10:55:31;12.30;73.50
38488;DHT22;57384;51.986;4.458;2024-03-23T10:57:58;12.40;73.40
38488;DHT22;57384;51.986;4.458;2024-03-23T11:00:25;12.50;73.40
38488;DHT22;57384;51.986;4.458;2024-03-23T11:02:52;12.50;73.30
38488;DHT22;57384;51.986;4.458;2024-03-23T11:05:28;12.60;73.30
38488;DHT22;57384;51.986;4.458;2024-03-23T11:07:57;12.70;73.20
38488;DHT22;57384;51.986;4.458;2024-03-23T11:10:30;12.70;73.10
38488;DHT22;57384;51.986;4.458;2024-03-23T11:15:47;12.90;73.00
38488;DHT22;57384;51.986;4.458;2024-03-23T11:18:22;13.00;72.90
38488;DHT22;57384;51.986;4.458;2024-03-23T11:20:51;13.10;72.80
38488;DHT22;57384;51.986;4.458;2024-03-23T11:23:27;13.20;72.70
38488;DHT22;57384;51.986;4.458;2024-03-23T11:26:02;13.30;72.60
38488;DHT22;57384;51.986;4.458;2024-03-23T11:28:34;13.40;72.50
38488;DHT22;57384;51.986;4.458;2024-03-23T11:31:00;13.50;72.40
38488;DHT22;57384;51.986;4.458;2024-03-23T11:33:39;13.70;72.30
38488;DHT22;57384;51.986;4.458;2024-03-23T11:36:07;13.70;72.20
38488;DHT22;57384;51.986;4.458;2024-03-23T11:38:39;13.80;72.10
38488;DHT22;57384;51.986;4.458;2024-03-23T11:41:17;13.90;72.10
38488;DHT22;57384;51.986;4.458;2024-03-23T11:43:45;14.00;72.60
38488;DHT22;57384;51.986;4.458;2024-03-23T11:46:22;14.00;72.00
38488;DHT22;57384;51.986;4.458;2024-03-23T11:48:50;14.20;72.00
38488;DHT22;57384;51.986;4.458;2024-03-23T11:51:16;14.30;71.90
38488;DHT22;57384;51.986;4.458;2024-03-23T11:53:43;14.40;71.80
38488;DHT22;57384;51.986;4.458;2024-03-23T11:56:12;14.40;72.20
38488;DHT22;57384;51.986;4.458;2024-03-23T11:58:40;14.60;71.60
38488;DHT22;57384;51.986;4.458;2024-03-23T12:01:09;14.60;71.40
38488;DHT22;57384;51.986;4.458;2024-03-23T12:03:38;14.70;71.30
38488;DHT22;57384;51.986;4.458;2024-03-23T12:06:09;14.80;71.10
38488;DHT22;57384;51.986;4.458;2024-03-23T12:08:37;15.00;71.00
38488;DHT22;57384;51.986;4.458;2024-03-23T12:11:08;15.10;70.90
38488;DHT22;57384;51.986;4.458;2024-03-23T12:13:40;15.20;70.70
38488;DHT22;57384;51.986;4.458;2024-03-23T12:18:36;15.50;70.40
38488;DHT22;57384;51.986;4.458;2024-03-23T12:21:04;15.60;70.30
38488;DHT22;57384;51.986;4.458;2024-03-23T12:23:30;15.60;70.10
38488;DHT22;57384;51.986;4.458;2024-03-23T12:25:59;15.70;70.10
38488;DHT22;57384;51.986;4.458;2024-03-23T12:28:38;15.80;70.00
38488;DHT22;57384;51.986;4.458;2024-03-23T12:31:06;15.90;69.60
38488;DHT22;57384;51.986;4.458;2024-03-23T12:33:33;15.90;69.30
38488;DHT22;57384;51.986;4.458;2024-03-23T12:36:02;15.90;69.10
38488;DHT22;57384;51.986;4.458;2024-03-23T12:38:29;15.90;68.70
38488;DHT22;57384;51.986;4.458;2024-03-23T12:40:55;16.00;68.70
38488;DHT22;57384;51.986;4.458;2024-03-23T12:43:22;16.00;68.60
38488;DHT22;57384;51.986;4.458;2024-03-23T12:45:49;16.00;68.60
38488;DHT22;57384;51.986;4.458;2024-03-23T12:48:16;16.00;68.60
38488;DHT22;57384;51.986;4.458;2024-03-23T12:50:43;16.10;68.40
38488;DHT22;57384;51.986;4.458;2024-03-23T12:53:09;16.10;68.30
38488;DHT22;57384;51.986;4.458;2024-03-23T12:55:36;16.10;67.90
38488;DHT22;57384;51.986;4.458;2024-03-23T12:58:04;16.20;67.60
38488;DHT22;57384;51.986;4.458;2024-03-23T13:00:32;16.20;67.10
38488;DHT22;57384;51.986;4.458;2024-03-23T13:03:03;16.20;66.40
38488;DHT22;57384;51.986;4.458;2024-03-23T13:05:30;16.20;65.80
38488;DHT22;57384;51.986;4.458;2024-03-23T13:08:00;16.20;65.50
38488;DHT22;57384;51.986;4.458;2024-03-23T13:10:28;16.30;65.00
38488;DHT22;57384;51.986;4.458;2024-03-23T13:12:54;16.20;64.60
38488;DHT22;57384;51.986;4.458;2024-03-23T13:15:21;16.30;64.40
38488;DHT22;57384;51.986;4.458;2024-03-23T13:17:56;16.30;64.50
38488;DHT22;57384;51.986;4.458;2024-03-23T13:20:25;16.20;64.30
38488;DHT22;57384;51.986;4.458;2024-03-23T13:22:54;16.30;64.10
38488;DHT22;57384;51.986;4.458;2024-03-23T13:25:20;16.20;64.10
38488;DHT22;57384;51.986;4.458;2024-03-23T13:27:48;16.20;63.80
38488;DHT22;57384;51.986;4.458;2024-03-23T13:30:22;16.20;63.60
38488;DHT22;57384;51.986;4.458;2024-03-23T13:32:51;16.20;63.70
38488;DHT22;57384;51.986;4.458;2024-03-23T13:35:25;16.10;63.60
38488;DHT22;57384;51.986;4.458;2024-03-23T13:37:52;16.10;63.70
38488;DHT22;57384;51.986;4.458;2024-03-23T13:40:20;16.00;63.50
38488;DHT22;57384;51.986;4.458;2024-03-23T13:42:48;16.00;63.60
38488;DHT22;57384;51.986;4.458;2024-03-23T13:45:16;15.90;63.50
38488;DHT22;57384;51.986;4.458;2024-03-23T13:47:43;15.80;63.40
38488;DHT22;57384;51.986;4.458;2024-03-23T13:50:10;15.80;63.50
38488;DHT22;57384;51.986;4.458;2024-03-23T13:52:36;15.70;63.50
38488;DHT22;57384;51.986;4.458;2024-03-23T13:55:19;15.70;63.60
38488;DHT22;57384;51.986;4.458;2024-03-23T13:57:45;15.60;63.70
38488;DHT22;57384;51.986;4.458;2024-03-23T14:00:13;15.50;63.70
38488;DHT22;57384;51.986;4.458;2024-03-23T14:02:41;15.50;63.70
38488;DHT22;57384;51.986;4.458;2024-03-23T14:05:09;15.40;63.70
38488;DHT22;57384;51.986;4.458;2024-03-23T14:07:51;15.30;63.70
38488;DHT22;57384;51.986;4.458;2024-03-23T14:10:24;15.20;63.70
38488;DHT22;57384;51.986;4.458;2024-03-23T14:12:58;15.20;63.80
38488;DHT22;57384;51.986;4.458;2024-03-23T14:15:27;15.20;63.80
38488;DHT22;57384;51.986;4.458;2024-03-23T14:17:57;15.10;63.80
38488;DHT22;57384;51.986;4.458;2024-03-23T14:20:25;15.10;63.80
38488;DHT22;57384;51.986;4.458;2024-03-23T14:22:52;15.00;63.80
38488;DHT22;57384;51.986;4.458;2024-03-23T14:25:20;15.00;63.90
38488;DHT22;57384;51.986;4.458;2024-03-23T14:27:50;14.90;63.90
38488;DHT22;57384;51.986;4.458;2024-03-23T14:30:16;14.90;63.90
38488;DHT22;57384;51.986;4.458;2024-03-23T14:32:43;14.90;64.00
38488;DHT22;57384;51.986;4.458;2024-03-23T14:35:16;14.80;63.90
38488;DHT22;57384;51.986;4.458;2024-03-23T14:37:44;14.80;63.90
38488;DHT22;57384;51.986;4.458;2024-03-23T14:40:11;14.80;64.00
38488;DHT22;57384;51.986;4.458;2024-03-23T14:42:38;14.80;64.00
38488;DHT22;57384;51.986;4.458;2024-03-23T14:45:10;14.70;64.00
38488;DHT22;57384;51.986;4.458;2024-03-23T14:47:39;14.70;64.10
38488;DHT22;57384;51.986;4.458;2024-03-23T14:50:08;14.70;64.10
38488;DHT22;57384;51.986;4.458;2024-03-23T14:52:36;14.60;64.10
38488;DHT22;57384;51.986;4.458;2024-03-23T14:55:12;14.60;64.10
38488;DHT22;57384;51.986;4.458;2024-03-23T14:57:43;14.60;64.10
38488;DHT22;57384;51.986;4.458;2024-03-23T15:00:10;14.50;64.10
38488;DHT22;57384;51.986;4.458;2024-03-23T15:02:45;14.50;64.10
38488;DHT22;57384;51.986;4.458;2024-03-23T15:05:14;14.50;64.10
38488;DHT22;57384;51.986;4.458;2024-03-23T15:07:43;14.40;64.00
38488;DHT22;57384;51.986;4.458;2024-03-23T15:10:12;14.40;64.00
38488;DHT22;57384;51.986;4.458;2024-03-23T15:12:40;14.30;64.00
38488;DHT22;57384;51.986;4.458;2024-03-23T15:15:07;14.30;64.00
38488;DHT22;57384;51.986;4.458;2024-03-23T15:17:34;14.20;64.00
38488;DHT22;57384;51.986;4.458;2024-03-23T15:20:00;14.20;64.00
38488;DHT22;57384;51.986;4.458;2024-03-23T15:22:27;14.20;64.10
38488;DHT22;57384;51.986;4.458;2024-03-23T15:24:54;14.10;64.10
38488;DHT22;57384;51.986;4.458;2024-03-23T15:27:21;14.10;64.10
38488;DHT22;57384;51.986;4.458;2024-03-23T15:29:50;14.10;64.10
38488;DHT22;57384;51.986;4.458;2024-03-23T15:32:23;14.10;64.10
38488;DHT22;57384;51.986;4.458;2024-03-23T15:34:51;14.00;64.20
38488;DHT22;57384;51.986;4.458;2024-03-23T15:37:18;14.00;64.20
38488;DHT22;57384;51.986;4.458;2024-03-23T15:39:45;14.00;64.20
38488;DHT22;57384;51.986;4.458;2024-03-23T15:42:19;13.90;64.10
38488;DHT22;57384;51.986;4.458;2024-03-23T15:44:47;13.80;64.10
38488;DHT22;57384;51.986;4.458;2024-03-23T15:47:15;13.80;64.10
38488;DHT22;57384;51.986;4.458;2024-03-23T15:49:54;13.80;64.20
38488;DHT22;57384;51.986;4.458;2024-03-23T15:52:22;13.80;64.30
38488;DHT22;57384;51.986;4.458;2024-03-23T15:54:54;13.70;64.30
38488;DHT22;57384;51.986;4.458;2024-03-23T15:57:27;13.70;64.40
38488;DHT22;57384;51.986;4.458;2024-03-23T16:00:05;13.60;64.30
38488;DHT22;57384;51.986;4.458;2024-03-23T16:02:32;13.60;64.40
38488;DHT22;57384;51.986;4.458;2024-03-23T16:04:59;13.50;64.40
38488;DHT22;57384;51.986;4.458;2024-03-23T16:07:28;13.50;64.50
38488;DHT22;57384;51.986;4.458;2024-03-23T16:09:55;13.40;64.40
38488;DHT22;57384;51.986;4.458;2024-03-23T16:12:22;13.40;64.50
38488;DHT22;57384;51.986;4.458;2024-03-23T16:14:50;13.40;64.50
38488;DHT22;57384;51.986;4.458;2024-03-23T16:17:17;13.30;64.50
38488;DHT22;57384;51.986;4.458;2024-03-23T16:19:43;13.20;64.50
38488;DHT22;57384;51.986;4.458;2024-03-23T16:22:12;13.20;64.60
38488;DHT22;57384;51.986;4.458;2024-03-23T16:24:40;13.10;64.60
38488;DHT22;57384;51.986;4.458;2024-03-23T16:27:13;13.10;64.70
38488;DHT22;57384;51.986;4.458;2024-03-23T16:29:41;13.10;64.80
38488;DHT22;57384;51.986;4.458;2024-03-23T16:32:08;13.00;64.70
38488;DHT22;57384;51.986;4.458;2024-03-23T16:34:35;13.00;64.70
38488;DHT22;57384;51.986;4.458;2024-03-23T16:37:02;12.90;64.60
38488;DHT22;57384;51.986;4.458;2024-03-23T16:39:30;12.90;64.50
38488;DHT22;57384;51.986;4.458;2024-03-23T16:42:05;12.90;64.50
38488;DHT22;57384;51.986;4.458;2024-03-23T16:44:38;12.80;64.50
38488;DHT22;57384;51.986;4.458;2024-03-23T16:47:05;12.80;64.30
38488;DHT22;57384;51.986;4.458;2024-03-23T16:49:33;12.80;64.20
38488;DHT22;57384;51.986;4.458;2024-03-23T16:51:59;12.70;63.80
38488;DHT22;57384;51.986;4.458;2024-03-23T16:54:26;12.60;63.40
38488;DHT22;57384;51.986;4.458;2024-03-23T16:56:54;12.60;63.30